La Salle, Canada
Current Conditions -  °F | °C
As of 2:00 PM on Monday 26 Jan 2015 (Local Time) from CYWG Reporting Station
Overcast Overcast  
Wind Chill: 14°   Ceiling: 1200
Heat Index: 27°   Visibility: 15mi
Dew Point: 21°   Wind: 16mph
Humidity: 80%   Direction: 330°NNW
Pressure: 29.89"   Gusts: NA
Location:  49.68°N, 97.27°W
Report Text: CYWG 262000Z 33014KT 15SM OVC012 M03/M06 A2989 RMK SC8 SLP136
Loading
Personal Weather Stations






























Interactive Weather Map New forecast layout! Learn more

10-Day Weather Forecast

Advertisements
Track Severe Weather on mobile